Pagina principale
METAR-TAF:

METAR-TAF

Aeroporti :

Aeroporto di Antananarivo-Ivato

Antananarivo, Madagascar

latitudine: 18-48S, longitudine: 047-29E, altezza: 1279 m

Osservazione

Il bollettino è stato emesso 20 minuti fa, alle 22:30 UTC
Vento 4 kt da sud-est, variando fra est e sud
Temperature 17°C
Umidità 100%
Pressione 1010 hPa
Visibilità: 8000 m
Poco nuvoloso ad un'altezza di 600 ft
Nuvoloso ad un'altezza di 2000 ft
pioggia debole

METAR: FMMI 222230Z 14004KT 100V180 8000 -RA FEW006 BKN020 17/17 Q1010 TEMPO 4000 RA

Ora: 01:50 (22:50 UTC)

Previsione

Il bollettino è stato emesso 5 ore e 50 minuti fa, alle 17:00 UTC
Previsione valida dal 22 alle 18 UTC al 23 alle 24 UTC
Vento 8 kt da est
Visibilità: 9000 m
Poco nuvoloso ad un'altezza di 1000 ft
Nuvoloso ad un'altezza di 2000 ft
Temporaneamente
dal 22 alle 18 UTC al 23 alle 24 UTC
Visibilità: 4000 m
pioggia

TAF: FMMI 221700Z 2218/2324 10008KT 9000 FEW010 BKN020 TEMPO 2218/2324 4000 RA

Osservazioni e previsioni meteorologiche di più di 4000 aeroporti (messaggi METAR e TAF).

Le stazioni disponibili sono rappresentate dai dischi gialli e rossi sulla carta.

Puntare il mouse per vedere il nome della stazione.

Clicca sopra per visualizzare le osservazioni e previsioni meteorologiche.

Per cambiare la mappa : fare clic sui pulsanti verdi con una croce nera per ingrandire, il pulsante verde con un trattino per diminuire, o sulla freccia verde per le mappe adiacenti.


METAR-TAF: